Time;durP1;ratioP1;P1;durP2;ratioP2;P2;SDS_P1;SDS_P2;PMS_P1;PMS_P2;Temp;Humidity;BMP_temperature;BMP_pressure;BME280_temperature;BME280_humidity;BME280_pressure;Samples;Min_cycle;Max_cycle;Signal;HPM_P1;HPM_P2
2023/12/11 00:00:05;;;;;;;1999.90;999.90;;;11.40;99.90;;;;;;4994383;28;20424;-70
2023/12/11 00:02:31;;;;;;;1999.90;999.90;;;11.40;99.90;;;;;;4995295;28;20467;-70
2023/12/11 00:04:57;;;;;;;1999.90;999.90;;;11.40;99.90;;;;;;4995704;28;20448;-70
2023/12/11 00:07:22;;;;;;;1999.90;999.90;;;11.40;99.90;;;;;;4995710;28;20408;-70
2023/12/11 00:09:48;;;;;;;1999.90;999.90;;;11.40;99.90;;;;;;4995407;28;20235;-70
2023/12/11 00:12:13;;;;;;;1999.90;999.90;;;11.40;99.90;;;;;;4995400;28;20296;-70
2023/12/11 00:14:39;;;;;;;1999.90;999.90;;;11.50;99.90;;;;;;4995591;28;20180;-70
2023/12/11 00:17:05;;;;;;;1999.90;999.90;;;11.50;99.90;;;;;;4995588;28;20185;-70
2023/12/11 00:19:30;;;;;;;1999.90;999.90;;;11.50;99.90;;;;;;4995212;28;20178;-70
2023/12/11 00:21:56;;;;;;;1999.90;999.90;;;11.50;99.90;;;;;;4995336;28;20205;-70
2023/12/11 00:24:22;;;;;;;1999.90;999.90;;;11.50;99.90;;;;;;4995381;28;20645;-70
2023/12/11 00:26:47;;;;;;;1999.90;999.90;;;11.50;99.90;;;;;;4995320;28;20212;-70
2023/12/11 00:29:14;;;;;;;1999.90;999.90;;;11.50;99.90;;;;;;4995109;28;20175;-70
2023/12/11 00:31:39;;;;;;;1999.90;999.90;;;11.60;99.90;;;;;;4994294;28;20182;-70
2023/12/11 00:34:05;;;;;;;1999.90;999.90;;;11.60;99.90;;;;;;4993934;28;20404;-70
2023/12/11 00:36:31;;;;;;;1999.90;999.90;;;11.60;99.90;;;;;;4995228;28;20169;-70
2023/12/11 00:38:56;;;;;;;1999.90;999.90;;;11.60;99.90;;;;;;4994922;28;20561;-70
2023/12/11 00:41:22;;;;;;;1999.90;999.90;;;11.60;99.90;;;;;;4994963;28;20243;-70
2023/12/11 00:43:49;;;;;;;1999.90;999.90;;;11.60;99.90;;;;;;4995075;28;20176;-70
2023/12/11 00:46:16;;;;;;;1999.90;999.90;;;11.60;99.90;;;;;;4994964;28;20231;-71
2023/12/11 00:48:42;;;;;;;1999.90;999.90;;;11.70;99.90;;;;;;4994723;28;20889;-70
2023/12/11 00:51:15;;;;;;;1999.90;999.90;;;11.50;99.90;;;;;;4993649;28;20455;-70
2023/12/11 00:53:41;;;;;;;1999.90;999.90;;;11.50;99.90;;;;;;4994802;28;20408;-70
2023/12/11 00:56:07;;;;;;;1999.90;999.90;;;11.40;99.90;;;;;;4994776;28;20451;-70
2023/12/11 00:58:32;;;;;;;1999.90;999.90;;;11.40;99.90;;;;;;4994604;28;20274;-70
2023/12/11 01:00:58;;;;;;;1999.90;999.90;;;11.40;99.90;;;;;;4994660;28;20436;-70
2023/12/11 01:03:24;;;;;;;1999.90;999.90;;;11.30;99.90;;;;;;4994591;28;20260;-70
2023/12/11 01:05:49;;;;;;;1999.90;999.90;;;11.40;99.90;;;;;;4994483;28;20201;-70
2023/12/11 01:08:15;;;;;;;1999.90;999.90;;;11.40;99.90;;;;;;4994409;28;20540;-70
2023/12/11 01:10:40;;;;;;;1999.90;999.90;;;11.40;99.90;;;;;;4994314;28;20665;-70
2023/12/11 01:13:06;;;;;;;1999.90;999.90;;;;;;;;;;4994537;28;20184;-70
2023/12/11 01:15:32;;;;;;;1999.90;999.90;;;11.50;99.90;;;;;;4994516;28;20450;-70
2023/12/11 01:17:58;;;;;;;1999.90;999.90;;;11.50;99.90;;;;;;4994221;28;20423;-71
2023/12/11 01:20:23;;;;;;;1999.90;999.90;;;11.40;99.90;;;;;;4994196;28;20185;-71
2023/12/11 01:22:49;;;;;;;1999.90;999.90;;;11.40;99.90;;;;;;4994282;28;20237;-70
2023/12/11 01:25:14;;;;;;;1999.90;999.90;;;11.30;99.90;;;;;;4994139;28;20194;-70
2023/12/11 01:27:40;;;;;;;1999.90;999.90;;;11.30;99.90;;;;;;4994240;28;20173;-70
2023/12/11 01:30:06;;;;;;;1999.90;999.90;;;11.20;99.90;;;;;;4994013;28;20176;-70
2023/12/11 01:32:32;;;;;;;1999.90;999.90;;;11.20;99.90;;;;;;4994075;28;20193;-70
2023/12/11 01:35:00;;;;;;;1999.90;999.90;;;11.20;99.90;;;;;;4994057;28;20416;-70
2023/12/11 01:37:26;;;;;;;1999.90;999.90;;;11.20;99.90;;;;;;4993964;28;20174;-70
2023/12/11 01:39:51;;;;;;;1999.90;999.90;;;11.20;99.90;;;;;;4992478;28;20416;-70
2023/12/11 01:42:17;;;;;;;1999.90;999.90;;;11.20;99.90;;;;;;4993980;28;20572;-70
2023/12/11 01:44:43;;;;;;;1999.90;999.90;;;11.30;99.90;;;;;;4993858;28;20252;-70
2023/12/11 01:47:09;;;;;;;1999.90;999.90;;;11.30;99.90;;;;;;4993819;28;20274;-71
2023/12/11 01:49:38;;;;;;;1999.90;999.90;;;11.30;99.90;;;;;;4993591;28;20173;-70
2023/12/11 01:52:06;;;;;;;1999.90;999.90;;;11.40;99.90;;;;;;4993466;28;20455;-70
2023/12/11 01:54:31;;;;;;;1999.90;999.90;;;11.40;99.90;;;;;;4993665;28;20416;-71
2023/12/11 01:56:57;;;;;;;1999.90;999.90;;;11.50;99.90;;;;;;4992425;28;21024;-71
2023/12/11 01:59:23;;;;;;;1999.90;999.90;;;11.50;99.90;;;;;;4993511;28;20176;-70
2023/12/11 02:01:49;;;;;;;1999.90;999.90;;;11.50;99.90;;;;;;4993502;28;20204;-70
2023/12/11 02:04:15;;;;;;;1999.90;999.90;;;11.50;99.90;;;;;;4993524;28;20179;-71
2023/12/11 02:06:41;;;;;;;1999.90;999.90;;;11.50;99.90;;;;;;4993364;28;20482;-70
2023/12/11 02:09:08;;;;;;;1999.90;999.90;;;11.50;99.90;;;;;;4993202;28;20400;-71
2023/12/11 02:11:34;;;;;;;1999.90;999.90;;;11.60;99.90;;;;;;4993187;28;20198;-70
2023/12/11 02:13:59;;;;;;;1999.90;999.90;;;11.70;99.90;;;;;;4993367;28;20431;-70
2023/12/11 02:16:25;;;;;;;1999.90;999.90;;;11.70;99.90;;;;;;4993372;28;20254;-71
2023/12/11 02:18:51;;;;;;;1999.90;999.90;;;11.60;99.90;;;;;;4993155;28;20176;-71
2023/12/11 02:21:17;;;;;;;1999.90;999.90;;;11.60;99.90;;;;;;4993200;28;20193;-71
2023/12/11 02:23:51;;;;;;;1999.90;999.90;;;11.60;99.90;;;;;;4993038;28;20191;-70
2023/12/11 02:26:18;;;;;;;1999.90;999.90;;;11.60;99.90;;;;;;4993132;28;20448;-71
2023/12/11 02:28:44;;;;;;;1999.90;999.90;;;11.60;99.90;;;;;;4992985;28;20936;-70
2023/12/11 02:31:10;;;;;;;1999.90;999.90;;;11.60;99.90;;;;;;4993110;28;20428;-71
2023/12/11 02:33:36;;;;;;;1999.90;999.90;;;11.60;99.90;;;;;;4992915;28;20409;-71
2023/12/11 02:36:02;;;;;;;1999.90;999.90;;;11.60;99.90;;;;;;4993031;28;20405;-70
2023/12/11 02:38:28;;;;;;;1999.90;999.90;;;11.60;99.90;;;;;;4992648;28;20715;-71
2023/12/11 02:40:53;;;;;;;1999.90;999.90;;;11.60;99.90;;;;;;4992845;28;20429;-70
2023/12/11 02:43:19;;;;;;;1999.90;999.90;;;11.60;99.90;;;;;;4992871;28;20183;-71
2023/12/11 02:45:45;;;;;;;1999.90;999.90;;;11.60;99.90;;;;;;4992779;28;20195;-71
2023/12/11 02:48:11;;;;;;;1999.90;999.90;;;11.60;99.90;;;;;;4992648;28;20166;-71
2023/12/11 02:50:37;;;;;;;1999.90;999.90;;;11.70;99.90;;;;;;4992743;28;20162;-71
2023/12/11 02:53:04;;;;;;;1999.90;999.90;;;11.70;99.90;;;;;;4992602;28;20400;-71
2023/12/11 02:55:30;;;;;;;1999.90;999.90;;;11.70;99.90;;;;;;4992321;28;20440;-71
2023/12/11 02:58:00;;;;;;;1999.90;999.90;;;11.70;99.90;;;;;;4992502;28;20422;-71
2023/12/11 03:00:27;;;;;;;1999.90;999.90;;;11.60;99.90;;;;;;4991300;28;20783;-71
2023/12/11 03:02:53;;;;;;;1999.90;999.90;;;11.70;99.90;;;;;;4992515;28;20482;-71
2023/12/11 03:05:18;;;;;;;1999.90;999.90;;;11.60;99.90;;;;;;4992466;28;20453;-71
2023/12/11 03:07:45;;;;;;;1999.90;999.90;;;11.60;99.90;;;;;;4992220;28;21002;-71
2023/12/11 03:10:11;;;;;;;1999.90;999.90;;;11.60;99.90;;;;;;4992540;28;20409;-71
2023/12/11 03:12:37;;;;;;;1999.90;999.90;;;11.60;99.90;;;;;;4990994;28;20456;-70
2023/12/11 03:15:04;;;;;;;1999.90;999.90;;;11.60;99.90;;;;;;4991253;28;20181;-71
2023/12/11 03:17:30;;;;;;;1999.90;999.90;;;11.60;99.90;;;;;;4992398;28;20412;-71
2023/12/11 03:19:55;;;;;;;1999.90;999.90;;;11.60;99.90;;;;;;4992160;28;20412;-71
2023/12/11 03:22:24;;;;;;;1999.90;999.90;;;11.60;99.90;;;;;;4992223;28;20232;-71
2023/12/11 03:24:50;;;;;;;1999.90;999.90;;;11.60;99.90;;;;;;4992377;28;20166;-71
2023/12/11 03:27:16;;;;;;;1999.90;999.90;;;11.60;99.90;;;;;;4992294;28;20495;-71
2023/12/11 03:29:42;;;;;;;1999.90;999.90;;;11.50;99.90;;;;;;4990939;28;20433;-70
2023/12/11 03:32:08;;;;;;;1999.90;999.90;;;11.50;99.90;;;;;;4992259;28;20840;-70
2023/12/11 03:34:34;;;;;;;1999.90;999.90;;;11.50;99.90;;;;;;4992287;28;20280;-71
2023/12/11 03:36:59;;;;;;;1999.90;999.90;;;11.50;99.90;;;;;;4992222;28;20444;-71
2023/12/11 03:39:25;;;;;;;1999.90;999.90;;;11.40;99.90;;;;;;4992092;28;20213;-71
2023/12/11 03:41:51;;;;;;;1999.90;999.90;;;11.40;99.90;;;;;;4992133;28;20271;-71
2023/12/11 03:44:17;;;;;;;1999.90;999.90;;;11.40;99.90;;;;;;4992225;28;20181;-71
2023/12/11 03:46:43;;;;;;;1999.90;999.90;;;11.40;99.90;;;;;;4992099;28;20452;-71
2023/12/11 03:49:08;;;;;;;1999.90;999.90;;;11.40;99.90;;;;;;4991987;28;20180;-71
2023/12/11 03:51:34;;;;;;;1999.90;999.90;;;11.40;99.90;;;;;;4991980;28;20283;-71
2023/12/11 03:54:00;;;;;;;1999.90;999.90;;;11.30;99.90;;;;;;4992089;28;20176;-71
2023/12/11 03:56:27;;;;;;;1999.90;999.90;;;11.30;99.90;;;;;;4992165;28;20303;-71
2023/12/11 03:58:52;;;;;;;1999.90;999.90;;;11.30;99.90;;;;;;4991909;28;20416;-71
2023/12/11 04:01:18;;;;;;;1999.90;999.90;;;11.30;99.90;;;;;;4992034;28;20794;-71
2023/12/11 04:03:44;;;;;;;1999.90;999.90;;;11.40;99.90;;;;;;4991991;28;20172;-71
2023/12/11 04:06:09;;;;;;;1999.90;999.90;;;11.40;99.90;;;;;;4991892;28;20202;-71
2023/12/11 04:08:39;;;;;;;1999.90;999.90;;;11.50;99.90;;;;;;5017232;23;20306;-72
2023/12/11 04:11:05;;;;;;;1999.90;999.90;;;11.50;99.90;;;;;;5015515;28;20194;-72
2023/12/11 04:13:31;;;;;;;1999.90;999.90;;;11.40;99.90;;;;;;5015273;28;20486;-72
2023/12/11 04:15:56;;;;;;;1999.90;999.90;;;11.40;99.90;;;;;;5015171;28;20174;-72
2023/12/11 04:18:22;;;;;;;1999.90;999.90;;;11.40;99.90;;;;;;5014939;28;20204;-71
2023/12/11 04:20:47;;;;;;;1999.90;999.90;;;11.30;99.90;;;;;;5015386;28;20263;-72
2023/12/11 04:23:13;;;;;;;1999.90;999.90;;;11.40;99.90;;;;;;5015074;28;20177;-72
2023/12/11 04:25:39;;;;;;;1999.90;999.90;;;11.40;99.90;;;;;;5015066;28;20251;-72
2023/12/11 04:28:04;;;;;;;1999.90;999.90;;;11.50;99.90;;;;;;5014671;28;20196;-72
2023/12/11 04:30:30;;;;;;;1999.90;999.90;;;11.50;99.90;;;;;;5015025;28;20231;-71
2023/12/11 04:32:56;;;;;;;1999.90;999.90;;;11.50;99.90;;;;;;5014749;28;20176;-72
2023/12/11 04:35:21;;;;;;;1999.90;999.90;;;11.50;99.90;;;;;;5014755;28;20411;-72
2023/12/11 04:37:47;;;;;;;1999.90;999.90;;;11.40;99.90;;;;;;5014586;28;20234;-72
2023/12/11 04:40:12;;;;;;;1999.90;999.90;;;11.30;99.90;;;;;;5014827;28;20726;-72
2023/12/11 04:42:38;;;;;;;1999.90;999.90;;;11.40;99.90;;;;;;5014777;28;20566;-72
2023/12/11 04:45:04;;;;;;;1999.90;999.90;;;11.40;99.90;;;;;;5015140;28;20595;-72
2023/12/11 04:47:30;;;;;;;1999.90;999.90;;;11.30;99.90;;;;;;5014880;28;20181;-72
2023/12/11 04:49:55;;;;;;;1999.90;999.90;;;11.10;99.90;;;;;;5015071;28;20436;-72
2023/12/11 04:52:21;;;;;;;1999.90;999.90;;;11.00;99.90;;;;;;5015618;28;20186;-72
2023/12/11 04:54:46;;;;;;;1999.90;999.90;;;10.90;99.90;;;;;;5015775;28;20198;-71
2023/12/11 04:57:12;;;;;;;1999.90;999.90;;;10.80;99.90;;;;;;5015584;28;20238;-72
2023/12/11 04:59:38;;;;;;;1999.90;999.90;;;10.70;99.90;;;;;;5015395;28;20198;-72
2023/12/11 05:02:03;;;;;;;1999.90;999.90;;;10.60;99.90;;;;;;5015339;28;20247;-72
2023/12/11 05:04:29;;;;;;;1999.90;999.90;;;10.50;99.90;;;;;;5015227;28;20195;-71
2023/12/11 05:06:54;;;;;;;1999.90;999.90;;;10.50;99.90;;;;;;5015395;28;20212;-71
2023/12/11 05:09:20;;;;;;;1999.90;999.90;;;10.60;99.90;;;;;;5015131;28;20219;-72
2023/12/11 05:11:46;;;;;;;1999.90;999.90;;;10.50;99.90;;;;;;5015704;28;20184;-71
2023/12/11 05:14:12;;;;;;;1999.90;999.90;;;10.40;99.90;;;;;;5014361;28;20419;-73
2023/12/11 05:16:37;;;;;;;1999.90;999.90;;;10.30;99.90;;;;;;5014003;28;20184;-74
2023/12/11 05:19:03;;;;;;;1999.90;999.90;;;10.20;99.90;;;;;;5013451;28;20697;-73
2023/12/11 05:21:28;;;;;;;1999.90;999.90;;;10.10;99.90;;;;;;5013908;28;20579;-74
2023/12/11 05:23:55;;;;;;;1999.90;999.90;;;10.10;99.90;;;;;;5013993;28;20192;-74
2023/12/11 05:26:21;;;;;;;1999.90;999.90;;;10.00;99.90;;;;;;5015497;28;20841;-74
2023/12/11 05:28:47;;;;;;;1999.90;999.90;;;9.90;99.90;;;;;;5013634;28;20466;-73
2023/12/11 05:31:14;;;;;;;1999.90;999.90;;;9.90;99.90;;;;;;5013680;28;20172;-71
2023/12/11 05:33:39;;;;;;;1999.90;999.90;;;9.90;99.90;;;;;;5013678;28;20957;-73
2023/12/11 05:36:06;;;;;;;1999.90;999.90;;;9.90;99.90;;;;;;5013904;28;20414;-72
2023/12/11 05:38:31;;;;;;;1999.90;999.90;;;9.90;99.90;;;;;;5013708;28;20203;-73
2023/12/11 05:40:57;;;;;;;1999.90;999.90;;;10.00;99.90;;;;;;5013786;28;20444;-73
2023/12/11 05:43:22;;;;;;;1999.90;999.90;;;10.00;99.90;;;;;;5013723;28;20246;-73
2023/12/11 05:45:48;;;;;;;1999.90;999.90;;;10.10;99.90;;;;;;5013724;28;20191;-72
2023/12/11 05:48:14;;;;;;;1999.90;999.90;;;10.10;99.90;;;;;;5013618;28;20227;-72
2023/12/11 05:50:40;;;;;;;1999.90;999.90;;;10.10;99.90;;;;;;5014335;28;20181;-71
2023/12/11 05:53:05;;;;;;;1999.90;999.90;;;10.10;99.90;;;;;;5013815;28;20468;-72
2023/12/11 05:55:31;;;;;;;1999.90;999.90;;;10.10;99.90;;;;;;5013918;28;20571;-72
2023/12/11 05:57:56;;;;;;;1999.90;999.90;;;10.10;99.90;;;;;;5013692;28;20206;-73
2023/12/11 06:00:22;;;;;;;1999.90;999.90;;;10.00;99.90;;;;;;5013914;28;20180;-72
2023/12/11 06:02:48;;;;;;;1999.90;999.90;;;10.00;99.90;;;;;;5014083;28;20182;-72
2023/12/11 06:05:14;;;;;;;1999.90;999.90;;;10.00;99.90;;;;;;5013650;28;20469;-71
2023/12/11 06:07:40;;;;;;;1999.90;999.90;;;9.90;99.90;;;;;;5013898;28;20172;-72
2023/12/11 06:10:06;;;;;;;1999.90;999.90;;;10.00;99.90;;;;;;5013873;28;20674;-72
2023/12/11 06:12:32;;;;;;;1999.90;999.90;;;10.10;99.90;;;;;;5013346;28;20398;-72
2023/12/11 06:14:58;;;;;;;1999.90;999.90;;;10.10;99.90;;;;;;5013336;28;20920;-72
2023/12/11 06:17:23;;;;;;;1999.90;999.90;;;10.10;99.90;;;;;;5013392;28;20410;-72
2023/12/11 06:19:49;;;;;;;1999.90;999.90;;;10.10;99.90;;;;;;5012810;28;20198;-72
2023/12/11 06:22:15;;;;;;;1999.90;999.90;;;10.10;99.90;;;;;;5013043;28;20196;-72
2023/12/11 06:24:41;;;;;;;1999.90;999.90;;;10.20;99.90;;;;;;5013157;28;20183;-72
2023/12/11 06:27:07;;;;;;;1999.90;999.90;;;10.20;99.90;;;;;;5013114;28;20666;-71
2023/12/11 06:29:32;;;;;;;1999.90;999.90;;;10.20;99.90;;;;;;5012176;28;20494;-72
2023/12/11 06:31:58;;;;;;;1999.90;999.90;;;10.20;99.90;;;;;;5012927;28;20406;-71
2023/12/11 06:34:24;;;;;;;1999.90;999.90;;;10.10;99.90;;;;;;5012988;28;20913;-72
2023/12/11 06:36:49;;;;;;;1999.90;999.90;;;10.10;99.90;;;;;;5012943;28;20174;-72
2023/12/11 06:39:15;;;;;;;1999.90;999.90;;;10.10;99.90;;;;;;5012623;28;20207;-72
2023/12/11 06:41:40;;;;;;;1999.90;999.90;;;10.10;99.90;;;;;;5012797;28;20184;-72
2023/12/11 06:44:06;;;;;;;1999.90;999.90;;;10.10;99.90;;;;;;5012594;28;20278;-72
2023/12/11 06:46:32;;;;;;;1999.90;999.90;;;10.10;99.90;;;;;;5012555;28;20200;-72
2023/12/11 06:48:57;;;;;;;1999.90;999.90;;;10.10;99.90;;;;;;5012414;28;20239;-72
2023/12/11 06:51:24;;;;;;;1999.90;999.90;;;10.20;99.90;;;;;;5013298;28;20259;-72
2023/12/11 06:53:50;;;;;;;1999.90;999.90;;;10.30;99.90;;;;;;5013258;28;20632;-71
2023/12/11 06:56:19;;;;;;;1999.90;999.90;;;10.30;99.90;;;;;;5013037;28;20417;-72
2023/12/11 06:58:45;;;;;;;1999.90;999.90;;;10.40;99.90;;;;;;5012938;28;20192;-72
2023/12/11 07:01:12;;;;;;;1999.90;999.90;;;10.50;99.90;;;;;;5012775;28;20422;-71
2023/12/11 07:03:40;;;;;;;1999.90;999.90;;;10.50;99.90;;;;;;5012353;28;20823;-71
2023/12/11 07:06:06;;;;;;;1999.90;999.90;;;10.50;99.90;;;;;;5012069;28;20486;-72
2023/12/11 07:08:31;;;;;;;1999.90;999.90;;;10.60;99.90;;;;;;5011843;28;20446;-72
2023/12/11 07:10:57;;;;;;;1999.90;999.90;;;10.70;99.90;;;;;;5012151;28;20412;-72
2023/12/11 07:13:22;;;;;;;1999.90;999.90;;;10.70;99.90;;;;;;5012038;28;20168;-71
2023/12/11 07:15:48;;;;;;;1999.90;999.90;;;10.70;99.90;;;;;;5012110;28;20228;-71
2023/12/11 07:18:14;;;;;;;1999.90;999.90;;;10.70;99.90;;;;;;5011801;28;20246;-71
2023/12/11 07:20:41;;;;;;;1999.90;999.90;;;10.70;99.90;;;;;;5012018;28;20183;-72
2023/12/11 07:23:07;;;;;;;1999.90;999.90;;;10.80;99.90;;;;;;5012069;28;20197;-71
2023/12/11 07:25:33;;;;;;;1999.90;999.90;;;10.80;99.90;;;;;;5011952;28;20478;-70
2023/12/11 07:27:59;;;;;;;1999.90;999.90;;;10.80;99.90;;;;;;5011652;28;20860;-72
2023/12/11 07:30:26;;;;;;;1999.90;999.90;;;10.80;99.90;;;;;;5011959;28;20482;-71
2023/12/11 07:32:51;;;;;;;1999.90;999.90;;;10.80;99.90;;;;;;5011903;28;20183;-71
2023/12/11 07:35:17;;;;;;;1999.90;999.90;;;10.90;99.90;;;;;;5012051;28;20406;-71
2023/12/11 07:37:43;;;;;;;1999.90;999.90;;;10.60;99.90;;;;;;5011942;28;20248;-71
2023/12/11 07:40:09;;;;;;;1999.90;999.90;;;10.80;99.90;;;;;;5011671;28;20175;-71
2023/12/11 07:42:35;;;;;;;1999.90;999.90;;;10.80;99.90;;;;;;5015456;28;20668;-71
2023/12/11 07:45:05;;;;;;;1999.90;999.90;;;10.80;99.90;;;;;;5015772;28;20431;-71
2023/12/11 07:47:33;;;;;;;1999.90;999.90;;;10.80;99.90;;;;;;5015693;28;20209;-71
2023/12/11 07:50:01;;;;;;;1999.90;999.90;;;10.80;99.90;;;;;;5015513;28;20407;-71
2023/12/11 07:52:30;;;;;;;1999.90;999.90;;;10.80;99.90;;;;;;5015631;28;20410;-71
2023/12/11 07:54:56;;;;;;;1999.90;999.90;;;10.90;99.90;;;;;;5015564;28;20921;-72
2023/12/11 07:57:25;;;;;;;1999.90;999.90;;;10.80;99.90;;;;;;5015531;28;20406;-71
2023/12/11 07:59:51;;;;;;;1999.90;999.90;;;10.90;99.90;;;;;;5015294;28;20439;-71
2023/12/11 08:02:16;;;;;;;1999.90;999.90;;;10.90;99.90;;;;;;5015402;28;20411;-72
2023/12/11 08:04:42;;;;;;;1999.90;999.90;;;10.90;99.90;;;;;;5015510;28;20418;-72
2023/12/11 08:07:07;;;;;;;1999.90;999.90;;;11.00;99.90;;;;;;5015395;28;20199;-71
2023/12/11 08:09:37;;;;;;;1999.90;999.90;;;11.00;99.90;;;;;;5015026;28;20783;-71
2023/12/11 08:12:03;;;;;;;1999.90;999.90;;;11.00;99.90;;;;;;5015326;28;20196;-71
2023/12/11 08:14:29;;;;;;;1999.90;999.90;;;11.00;99.90;;;;;;5004428;28;20968;-72
2023/12/11 08:16:54;;;;;;;1999.90;999.90;;;11.10;99.90;;;;;;4995655;28;20425;-72
2023/12/11 08:19:20;;;;;;;1999.90;999.90;;;11.10;99.90;;;;;;4995364;28;20468;-71
2023/12/11 08:21:45;;;;;;;1999.90;999.90;;;11.10;99.90;;;;;;4995622;28;20195;-71
2023/12/11 08:24:12;;;;;;;1999.90;999.90;;;11.10;99.90;;;;;;5001290;28;20209;-71
2023/12/11 08:26:38;;;;;;;1999.90;999.90;;;11.20;99.90;;;;;;5015149;28;20216;-70
2023/12/11 08:29:03;;;;;;;1999.90;999.90;;;11.20;99.90;;;;;;5014672;28;20489;-71
2023/12/11 08:31:30;;;;;;;1999.90;999.90;;;11.20;99.90;;;;;;5014836;28;20964;-71
2023/12/11 08:33:55;;;;;;;1999.90;999.90;;;11.30;99.90;;;;;;5015005;28;20181;-71
2023/12/11 08:36:21;;;;;;;1999.90;999.90;;;11.20;99.90;;;;;;5014883;28;20763;-70
2023/12/11 08:38:47;;;;;;;1999.90;999.90;;;11.30;99.90;;;;;;5014419;28;20672;-71
2023/12/11 08:41:13;;;;;;;1999.90;999.90;;;11.30;99.90;;;;;;5014779;28;20545;-71
2023/12/11 08:43:38;;;;;;;1999.90;999.90;;;11.30;99.90;;;;;;5014685;28;20399;-72
2023/12/11 08:46:04;;;;;;;1999.90;999.90;;;11.30;99.90;;;;;;5014658;28;20196;-71
2023/12/11 08:48:30;;;;;;;1999.90;999.90;;;11.40;99.90;;;;;;5014467;28;20188;-71
2023/12/11 08:50:55;;;;;;;1999.90;999.90;;;11.40;99.90;;;;;;5014623;28;20525;-72
2023/12/11 08:53:21;;;;;;;1999.90;999.90;;;11.40;99.90;;;;;;5013799;28;20200;-72
2023/12/11 08:55:48;;;;;;;1999.90;999.90;;;11.40;99.90;;;;;;5014635;28;20250;-72
2023/12/11 08:58:14;;;;;;;1999.90;999.90;;;11.50;99.90;;;;;;5014332;28;20534;-70
2023/12/11 09:00:39;;;;;;;1999.90;999.90;;;11.50;99.90;;;;;;5014000;28;20435;-71
2023/12/11 09:03:05;;;;;;;1999.90;999.90;;;11.50;99.90;;;;;;5014213;28;20462;-70
2023/12/11 09:05:31;;;;;;;1999.90;999.90;;;11.50;99.90;;;;;;5014220;28;20291;-71
2023/12/11 09:07:56;;;;;;;1999.90;999.90;;;11.50;99.90;;;;;;5013968;28;20818;-71
2023/12/11 09:10:22;;;;;;;1999.90;999.90;;;11.50;99.90;;;;;;5014340;28;20171;-71
2023/12/11 09:12:48;;;;;;;1999.90;999.90;;;11.50;99.90;;;;;;5014382;28;20543;-71
2023/12/11 09:15:13;;;;;;;1999.90;999.90;;;11.50;99.90;;;;;;5014336;28;20255;-71
2023/12/11 09:17:39;;;;;;;1999.90;999.90;;;11.70;99.90;;;;;;5014054;28;20206;-71
2023/12/11 09:20:06;;;;;;;1999.90;999.90;;;11.50;99.90;;;;;;5013869;28;20179;-71
2023/12/11 09:22:31;;;;;;;1999.90;999.90;;;11.60;99.90;;;;;;5013947;28;20173;-71
2023/12/11 09:24:57;;;;;;;1999.90;999.90;;;11.50;99.90;;;;;;5013547;28;20543;-70
2023/12/11 09:27:23;;;;;;;1999.90;999.90;;;11.50;99.90;;;;;;5014002;28;20289;-72
2023/12/11 09:29:48;;;;;;;1999.90;999.90;;;11.50;99.90;;;;;;5013613;28;20192;-71
2023/12/11 09:32:15;;;;;;;1999.90;999.90;;;11.50;99.90;;;;;;5013645;28;20628;-71
2023/12/11 09:34:41;;;;;;;1999.90;999.90;;;11.50;99.90;;;;;;5010121;28;20183;-71
2023/12/11 09:37:07;;;;;;;1999.90;999.90;;;11.50;99.90;;;;;;5013044;28;20782;-71
2023/12/11 09:39:33;;;;;;;1999.90;999.90;;;11.40;99.90;;;;;;5012128;28;20448;-71
2023/12/11 09:42:00;;;;;;;1999.90;999.90;;;11.40;99.90;;;;;;5011633;28;20179;-71
2023/12/11 09:44:27;;;;;;;1999.90;999.90;;;11.40;99.90;;;;;;5013271;28;20183;-70
2023/12/11 09:46:58;;;;;;;1999.90;999.90;;;11.40;99.90;;;;;;5013180;28;20455;-70
2023/12/11 09:49:24;;;;;;;1999.90;999.90;;;11.40;99.90;;;;;;5012809;28;20482;-71
2023/12/11 09:51:51;;;;;;;1999.90;999.90;;;11.40;99.90;;;;;;5013135;28;20886;-71
2023/12/11 09:54:17;;;;;;;1999.90;999.90;;;11.40;99.90;;;;;;5009149;28;20419;-71
2023/12/11 09:56:43;;;;;;;1999.90;999.90;;;11.40;99.90;;;;;;5010985;28;20514;-71
2023/12/11 09:59:10;;;;;;;1999.90;999.90;;;11.40;99.90;;;;;;5012624;28;20280;-71
2023/12/11 10:01:37;;;;;;;1999.90;999.90;;;11.40;99.90;;;;;;5011759;28;20451;-71
2023/12/11 10:04:03;;;;;;;1999.90;999.90;;;11.40;99.90;;;;;;5013296;28;20416;-71
2023/12/11 10:06:29;;;;;;;1999.90;999.90;;;11.50;99.90;;;;;;5013912;28;20822;-71
2023/12/11 10:08:55;;;;;;;1999.90;999.90;;;11.40;99.90;;;;;;5014036;28;20977;-72
2023/12/11 10:11:22;;;;;;;1999.90;999.90;;;11.50;99.90;;;;;;5014117;28;20642;-71
2023/12/11 10:13:49;;;;;;;1999.90;999.90;;;11.40;99.90;;;;;;5013978;28;20408;-71
2023/12/11 10:16:32;;;;;;;1999.90;999.90;;;11.40;99.90;;;;;;5013762;28;20402;-71
2023/12/11 10:19:02;;;;;;;1999.90;999.90;;;11.40;99.90;;;;;;5013847;28;20430;-71
2023/12/11 10:21:40;;;;;;;1999.90;999.90;;;11.40;99.90;;;;;;5017007;28;20418;-70
2023/12/11 10:24:10;;;;;;;1999.90;999.90;;;11.40;99.90;;;;;;5016689;28;20495;-71
2023/12/11 10:26:38;;;;;;;1999.90;999.90;;;11.50;99.90;;;;;;5015768;28;20854;-70
2023/12/11 10:29:21;;;;;;;1999.90;999.90;;;11.60;99.90;;;;;;5015428;28;20422;-71
2023/12/11 10:31:48;;;;;;;1999.90;999.90;;;11.60;99.90;;;;;;5011841;28;20518;-72
2023/12/11 10:34:14;;;;;;;1999.90;999.90;;;11.50;99.90;;;;;;5013975;28;20422;-70
2023/12/11 10:36:48;;;;;;;1999.90;999.90;;;11.40;99.90;;;;;;5020130;28;20977;-71
2023/12/11 10:39:14;;;;;;;1999.90;999.90;;;11.40;99.90;;;;;;5014368;28;20457;-69
2023/12/11 10:41:39;;;;;;;1999.90;999.90;;;11.20;99.90;;;;;;5014876;28;20419;-70
2023/12/11 10:44:05;;;;;;;1999.90;999.90;;;11.00;99.90;;;;;;5012716;28;20172;-69
2023/12/11 10:46:31;;;;;;;1999.90;999.90;;;10.90;99.90;;;;;;5012483;28;20278;-68
2023/12/11 10:48:59;;;;;;;1999.90;999.90;;;10.90;99.90;;;;;;5011499;28;20227;-68
2023/12/11 10:51:25;;;;;;;1999.90;999.90;;;10.70;99.90;;;;;;5012087;28;20496;-69
2023/12/11 10:53:51;;;;;;;1999.90;999.90;;;10.40;99.90;;;;;;5012191;28;20411;-68
2023/12/11 10:56:18;;;;;;;1999.90;999.90;;;10.30;99.90;;;;;;5011969;28;20456;-69
2023/12/11 10:58:44;;;;;;;1999.90;999.90;;;10.20;99.90;;;;;;5011739;28;20200;-69
2023/12/11 11:01:12;;;;;;;1999.90;999.90;;;10.10;99.90;;;;;;5012134;28;20441;-68
2023/12/11 11:03:38;;;;;;;1999.90;999.90;;;10.10;99.90;;;;;;5011871;28;20671;-69
2023/12/11 11:06:05;;;;;;;1999.90;999.90;;;10.20;99.90;;;;;;5011808;28;20502;-70
2023/12/11 11:08:48;;;;;;;1999.90;999.90;;;10.10;99.90;;;;;;5011380;28;20460;-68
2023/12/11 11:11:29;;;;;;;1999.90;999.90;;;10.10;99.90;;;;;;5012183;28;20410;-69
2023/12/11 11:14:14;;;;;;;1999.90;999.90;;;9.90;99.90;;;;;;5011851;28;20974;-70
2023/12/11 11:16:57;;;;;;;1999.90;999.90;;;9.90;99.90;;;;;;4990410;28;20425;-70
2023/12/11 11:19:24;;;;;;;1999.90;999.90;;;10.10;99.90;;;;;;5011656;28;20509;-70
2023/12/11 11:22:04;;;;;;;1999.90;999.90;;;9.90;99.90;;;;;;5011937;28;20465;-69
2023/12/11 11:24:30;;;;;;;1999.90;999.90;;;9.90;99.90;;;;;;5011764;28;20402;-70
2023/12/11 11:27:01;;;;;;;1999.90;999.90;;;9.90;99.90;;;;;;5011945;28;20450;-69
2023/12/11 11:29:43;;;;;;;1999.90;999.90;;;10.20;99.90;;;;;;5011517;28;20455;-70
2023/12/11 11:32:10;;;;;;;1999.90;999.90;;;10.20;99.90;;;;;;5012007;28;20782;-70
2023/12/11 11:34:39;;;;;;;1999.90;999.90;;;10.40;99.90;;;;;;5011677;28;20918;-70
2023/12/11 11:37:05;;;;;;;1999.90;999.90;;;10.60;99.90;;;;;;5011789;28;20434;-69
2023/12/11 11:39:59;;;;;;;1999.90;999.90;;;11.30;99.90;;;;;;5011248;28;20431;-69
2023/12/11 11:42:30;;;;;;;1999.90;999.90;;;11.80;99.90;;;;;;5007844;28;20648;-69
2023/12/11 11:44:59;;;;;;;1999.90;999.90;;;11.90;99.90;;;;;;5011909;28;20507;-69
2023/12/11 11:47:26;;;;;;;1999.90;999.90;;;12.00;99.90;;;;;;5012153;28;20491;-69
2023/12/11 11:49:53;;;;;;;1999.90;999.90;;;12.20;99.90;;;;;;5011830;28;20424;-69
2023/12/11 11:52:28;;;;;;;1999.90;999.90;;;12.40;99.90;;;;;;5011704;28;20923;-69
2023/12/11 11:55:07;;;;;;;1999.90;999.90;;;12.30;99.90;;;;;;5011598;28;20411;-70